| Date | Time | Temp. (oF) | Dew Point (oF) | Rel. Hum. (%) | Press. (in.) | Wind Dir. | Wind Speed (mph) | Hourly Rainfall (in.) |
|
|---|---|---|---|---|---|---|---|---|---|
| 1 | 10/28 | 00:00 | 41 | 37 | 86 | 30.30 | NNW | 0 | 0.00 |
| 2 | 10/27 | 23:00 | 42 | 37 | 84 | 30.29 | NNW | 1 | 0.00 |
| 3 | 10/27 | 22:00 | 43 | 37 | 82 | 30.27 | NNW | 0 | 0.00 |
| 4 | 10/27 | 21:00 | 44 | 37 | 78 | 30.26 | WNW | 1 | 0.00 |
| 5 | 10/27 | 20:00 | 44 | 37 | 79 | 30.25 | WNW | 2 | 0.00 |
| 6 | miss | miss | miss | miss | miss | miss | miss | miss | |
| 7 | 10/27 | 19:29 | 44 | 37 | 78 | 30.24 | WSW | 1 | 0.00 |
| 8 | miss | miss | miss | miss | miss | miss | miss | miss | |
| 9 | 10/27 | 19:27 | 44 | 37 | 78 | 30.24 | WSW | 0 | 0.00 |
| 10 | miss | miss | miss | miss | miss | miss | miss | miss | |
| 11 | 10/27 | 19:25 | 44 | 37 | 78 | 30.24 | WSW | 2 | 0.00 |
| 12 | miss | miss | miss | miss | miss | miss | miss | miss | |
| 13 | 10/27 | 19:23 | 44 | 37 | 77 | 30.24 | WSW | 0 | 0.00 |
| 14 | miss | miss | miss | miss | miss | miss | miss | miss | |
| 15 | 10/27 | 19:21 | 44 | 37 | 77 | 30.24 | WSW | 1 | 0.00 |
| 16 | miss | miss | miss | miss | miss | miss | miss | miss | |
| 17 | 10/27 | 19:19 | 44 | 37 | 77 | 30.24 | WSW | 0 | 0.00 |
| 18 | miss | miss | miss | miss | miss | miss | miss | miss | |
| 19 | 10/27 | 19:17 | 45 | 38 | 77 | 30.24 | WSW | 1 | 0.00 |
| 20 | miss | miss | miss | miss | miss | miss | miss | miss | |
| 21 | 10/27 | 19:15 | 45 | 38 | 77 | 30.24 | WSW | 1 | 0.00 |
| 22 | miss | miss | miss | miss | miss | miss | miss | miss | |
| 23 | 10/27 | 19:13 | 45 | 38 | 77 | 30.24 | WSW | 0 | 0.00 |
| 24 | miss | miss | miss | miss | miss | miss | miss | miss | |
| 25 | 10/27 | 19:11 | 45 | 38 | 77 | 30.24 | WSW | 2 | 0.00 |
| 26 | miss | miss | miss | miss | miss | miss | miss | miss | |
| 27 | 10/27 | 19:11 | 45 | 38 | 77 | 30.24 | WSW | 2 | 0.00 |
| 28 | miss | miss | miss | miss | miss | miss | miss | miss | |
| 29 | 10/27 | 19:11 | 45 | 38 | 77 | 30.24 | WSW | 2 | 0.00 |
| 30 | 10/27 | 19:00 | 45 | 37 | 76 | 30.23 | WNW | 1 | 0.00 |
| 31 | 10/27 | 18:00 | 46 | 37 | 73 | 30.22 | WNW | 1 | 0.00 |
| 32 | 10/27 | 17:00 | 47 | 38 | 72 | 30.20 | N | 4 | 0.00 |
| 33 | 10/27 | 16:00 | 47 | 36 | 67 | 30.20 | N | 4 | 0.00 |
| 34 | 10/27 | 15:00 | 48 | 36 | 64 | 30.19 | W | 2 | 0.00 |
| 35 | 10/27 | 14:00 | 49 | 35 | 60 | 30.19 | NW | 6 | 0.00 |
| 36 | 10/27 | 13:00 | 48 | 35 | 63 | 30.20 | W | 4 | 0.00 |
| 37 | 10/27 | 12:00 | 48 | 40 | 76 | 30.21 | W | 7 | 0.00 |
| 38 | 10/27 | 11:00 | 45 | 42 | 90 | 30.22 | WSW | 6 | 0.00 |
| 39 | 10/27 | 10:00 | 43 | 40 | 91 | 30.22 | N | 2 | 0.00 |
| 40 | 10/27 | 09:00 | 41 | 40 | 97 | 30.21 | W | 3 | 0.00 |
| 41 | 10/27 | 08:00 | 39 | 37 | 96 | 30.19 | SW | 3 | 0.00 |
| 42 | 10/27 | 07:00 | 40 | 38 | 95 | 30.16 | SSW | 0 | 0.00 |
| 43 | 10/27 | 06:00 | 41 | 39 | 93 | 30.15 | SSW | 3 | 0.00 |
| 44 | 10/27 | 05:00 | 41 | 39 | 94 | 30.13 | WSW | 1 | 0.00 |
| 45 | 10/27 | 04:00 | 42 | 39 | 91 | 30.12 | WSW | 1 | 0.00 |
| 46 | 10/27 | 03:00 | 42 | 39 | 92 | 30.13 | SW | 2 | 0.00 |
| 47 | 10/27 | 02:00 | 42 | 40 | 94 | 30.12 | WSW | 2 | 0.00 |
| 48 | 10/27 | 01:00 | 41 | 38 | 92 | 30.11 | SW | 2 | 0.00 |
| 49 | 10/27 | 00:00 | 43 | 39 | 86 | 30.10 | WSW | 2 | 0.00 |
| 50 | 10/26 | 23:00 | 44 | 39 | 84 | 30.08 | W | 5 | 0.00 |
| 51 | 10/26 | 22:00 | 45 | 41 | 86 | 30.07 | WSW | 3 | 0.00 |
| 52 | 10/26 | 21:00 | 46 | 41 | 84 | 30.05 | W | 4 | 0.00 |
| 53 | 10/26 | 20:00 | 46 | 40 | 81 | 30.02 | WNW | 2 | 0.00 |
| 54 | 10/26 | 19:00 | 48 | 40 | 75 | 29.98 | W | 1 | 0.00 |
| 55 | 10/26 | 18:00 | 50 | 40 | 71 | 29.96 | NW | 2 | 0.00 |
| 56 | 10/26 | 17:00 | 52 | 40 | 64 | 29.93 | NW | 5 | 0.00 |
| 57 | 10/26 | 16:00 | 52 | 40 | 66 | 29.91 | WNW | 6 | 0.00 |
| 58 | 10/26 | 15:00 | 52 | 40 | 65 | 29.90 | WSW | 7 | 0.00 |
| 59 | 10/26 | 14:00 | 51 | 39 | 65 | 29.90 | NNW | 10 | 0.00 |
| 60 | 10/26 | 13:00 | 51 | 40 | 67 | 29.89 | NW | 10 | 0.00 |
| 61 | 10/26 | 12:00 | 50 | 39 | 68 | 29.90 | WNW | 9 | 0.00 |
| 62 | 10/26 | 11:00 | 49 | 41 | 75 | 29.88 | NW | 11 | 0.00 |
| 63 | 10/26 | 10:00 | 46 | 40 | 80 | 29.85 | W | 14 | 0.00 |
| 64 | 10/26 | 09:00 | 43 | 39 | 87 | 29.82 | W | 9 | 0.00 |
| 65 | 10/26 | 08:00 | 40 | 37 | 92 | 29.78 | W | 9 | 0.00 |
| 66 | 10/26 | 07:00 | 40 | 37 | 91 | 29.75 | NW | 3 | 0.00 |
| 67 | 10/26 | 06:00 | 40 | 38 | 95 | 29.72 | NNW | 4 | 0.00 |
| 68 | 10/26 | 05:00 | 39 | 38 | 99 | 29.70 | W | 5 | 0.00 |
| 69 | 10/26 | 04:00 | 39 | 39 | 100 | 29.66 | WNW | 6 | 0.01 |
| 70 | 10/26 | 03:00 | 39 | 39 | 100 | 29.64 | W | 4 | 0.00 |
| 71 | 10/26 | 02:00 | 39 | 39 | 100 | 29.62 | WSW | 8 | 0.00 |
| 72 | 10/26 | 01:00 | 40 | 40 | 100 | 29.60 | WNW | 2 | 0.00 |
| 73 | 10/26 | 00:00 | 40 | 40 | 100 | 29.59 | WNW | 5 | -0.01 |